Time;durP1;ratioP1;P1;durP2;ratioP2;P2;SDS_P1;SDS_P2;PMS_P1;PMS_P2;Temp;Humidity;BMP_temperature;BMP_pressure;BME280_temperature;BME280_humidity;BME280_pressure;Samples;Min_cycle;Max_cycle;Signal;HPM_P1;HPM_P2
2022/11/08 00:02:25;;;;;;;;;;;;;;;25.48;46.09;94200.81;4902973;29;10608;-61
2022/11/08 00:04:51;;;;;;;;;;;;;;;25.48;45.93;94200.06;4882525;29;8984;-61
2022/11/08 00:15:45;;;;;;;;;;;;;;;25.46;45.56;94206.09;4925757;29;7105;-61
2022/11/08 00:18:11;;;;;;;;;;;;;;;25.46;46.12;94197.06;4927888;29;9230;-61
2022/11/08 00:20:36;;;;;;;;;;;;;;;25.43;46.11;94190.56;4920681;29;7401;-61
2022/11/08 00:23:03;;;;;;;;;;;;;;;25.44;46.05;94186.56;4943384;28;7290;-61
2022/11/08 00:25:54;;;;;;;;;;;;;;;25.43;46.01;94188.56;4919601;29;7034;-61
2022/11/08 00:28:31;;;;;;;;;;;;;;;25.42;45.43;94186.34;4927258;29;7202;-61
2022/11/08 00:31:07;;;;;;;;;;;;;;;25.41;45.37;94188.31;4942180;28;7036;-61
2022/11/08 00:33:43;;;;;;;;;;;;;;;25.43;45.38;94185.06;4912751;29;7637;-61
2022/11/08 00:36:11;;;;;;;;;;;;;;;25.39;45.59;94187.34;4925835;29;7061;-61
2022/11/08 00:38:43;;;;;;;;;;;;;;;25.37;46.26;94187.84;4930630;29;7182;-61
2022/11/08 00:41:10;;;;;;;;;;;;;;;25.38;46.02;94183.09;4917294;29;7023;-61
2022/11/08 00:43:42;;;;;;;;;;;;;;;25.38;46.31;94183.09;4916745;29;7316;-61
2022/11/08 00:46:08;;;;;;;;;;;;;;;25.35;45.91;94187.63;4915018;29;7056;-61
2022/11/08 00:48:34;;;;;;;;;;;;;;;25.35;46.25;94181.38;4926651;29;7449;-61
2022/11/08 00:51:31;;;;;;;;;;;;;;;25.36;46.31;94180.09;4915593;29;9656;-61
2022/11/08 00:54:02;;;;;;;;;;;;;;;25.35;45.52;94168.34;4934771;28;7288;-61
2022/11/08 00:56:54;;;;;;;;;;;;;;;25.33;46.36;94165.38;4932992;28;7122;-61
2022/11/08 00:59:22;;;;;;;;;;;;;;;25.34;45.91;94168.84;4920809;28;8256;-61
2022/11/08 01:01:53;;;;;;;;;;;;;;;25.32;46.06;94171.38;4934324;29;9700;-61
2022/11/08 01:04:38;;;;;;;;;;;;;;;25.31;46.45;94175.41;4930974;28;9387;-61
2022/11/08 01:07:14;;;;;;;;;;;;;;;25.29;45.73;94183.44;4943536;28;7092;-62
2022/11/08 01:09:49;;;;;;;;;;;;;;;25.30;46.22;94171.16;4933675;28;7031;-61
2022/11/08 01:12:24;;;;;;;;;;;;;;;25.30;46.29;94179.41;4934673;29;7496;-61
2022/11/08 01:15:01;;;;;;;;;;;;;;;25.30;46.21;94182.91;4918934;29;8627;-61
2022/11/08 01:17:27;;;;;;;;;;;;;;;25.27;46.40;94174.94;4926411;28;9359;-61
2022/11/08 01:19:53;;;;;;;;;;;;;;;25.29;46.75;94181.41;4924592;28;7293;-61
2022/11/08 01:22:19;;;;;;;;;;;;;;;25.31;46.18;94175.41;4936045;28;7016;-61
2022/11/08 01:24:49;;;;;;;;;;;;;;;25.30;45.62;94166.41;4940787;28;9674;-61
2022/11/08 01:27:42;;;;;;;;;;;;;;;25.27;46.58;94164.66;4946320;28;7208;-61
2022/11/08 01:30:08;;;;;;;;;;;;;;;25.29;45.72;94172.41;4934274;28;8311;-61
2022/11/08 01:32:34;;;;;;;;;;;;;;;25.26;45.43;94156.91;4944280;28;7026;-61
2022/11/08 01:35:00;;;;;;;;;;;;;;;25.27;45.69;94161.19;4931094;28;8568;-61
2022/11/08 01:37:33;;;;;;;;;;;;;;;25.27;45.65;94159.16;4929993;28;7267;-61
2022/11/08 01:39:59;;;;;;;;;;;;;;;25.27;46.25;94158.44;4940948;28;7761;-61
2022/11/08 01:42:30;;;;;;;;;;;;;;;25.24;46.08;94149.19;4917077;29;7207;-61
2022/11/08 01:45:01;;;;;;;;;;;;;;;25.24;46.29;94145.69;4930768;29;7228;-61
2022/11/08 01:47:29;;;;;;;;;;;;;;;25.24;45.91;94145.69;4913862;29;7015;-61
2022/11/08 01:50:10;;;;;;;;;;;;;;;25.24;45.72;94145.69;4931086;28;7016;-62
2022/11/08 01:52:54;;;;;;;;;;;;;;;25.25;46.48;94144.44;4914168;29;9351;-61
2022/11/08 01:55:35;;;;;;;;;;;;;;;25.23;46.31;94147.69;4925665;29;9092;-62
2022/11/08 01:58:05;;;;;;;;;;;;;;;25.24;46.37;94145.69;4927250;29;7272;-62
2022/11/08 02:00:55;;;;;;;;;;;;;;;25.22;45.91;94129.69;4940777;28;9651;-62
2022/11/08 02:03:32;;;;;;;;;;;;;;;25.20;45.86;94132.22;4931505;28;7000;-62
2022/11/08 02:06:03;;;;;;;;;;;;;;;25.20;45.70;94131.47;4931759;29;7259;-61
2022/11/08 02:08:49;;;;;;;;;;;;;;;25.23;45.51;94122.91;4914189;29;7296;-61
2022/11/08 02:11:27;;;;;;;;;;;;;;;25.21;45.72;94121.94;4917514;29;8726;-61
2022/11/08 02:14:03;;;;;;;;;;;;;;;25.23;46.01;94124.91;4939397;28;7044;-61
2022/11/08 02:16:33;;;;;;;;;;;;;;;25.22;45.96;94124.19;4932193;29;10292;-61
2022/11/08 02:19:02;;;;;;;;;;;;;;;25.21;46.46;94122.69;4918921;29;8749;-61
2022/11/08 02:21:43;;;;;;;;;;;;;;;25.21;46.03;94117.16;4926158;29;8173;-61
2022/11/08 02:24:15;;;;;;;;;;;;;;;25.20;46.45;94112.94;4942363;28;7475;-61
2022/11/08 02:26:45;;;;;;;;;;;;;;;25.21;45.94;94111.66;4915509;29;9403;-62
2022/11/08 02:29:33;;;;;;;;;;;;;;;25.22;45.60;94112.41;4924217;29;8996;-61
2022/11/08 02:32:05;;;;;;;;;;;;;;;25.21;45.83;94114.41;4924030;29;7054;-61
2022/11/08 02:34:54;;;;;;;;;;;;;;;25.21;46.42;94099.91;4916482;29;9078;-61
2022/11/08 02:37:24;;;;;;;;;;;;;;;25.21;45.61;94100.66;4919007;29;8166;-61
2022/11/08 02:39:57;;;;;;;;;;;;;;;25.20;46.36;94099.19;4914267;29;7092;-61
2022/11/08 02:42:25;;;;;;;;;;;;;;;25.19;46.12;94107.94;4906347;29;7296;-61
2022/11/08 02:44:52;;;;;;;;;;;;;;;25.21;46.25;94110.91;4914241;29;8349;-61
2022/11/08 02:47:29;;;;;;;;;;;;;;;25.19;45.72;94111.44;4934978;28;7025;-61
2022/11/08 02:49:56;;;;;;;;;;;;;;;25.21;45.95;94099.91;4934828;28;7031;-61
2022/11/08 02:52:28;;;;;;;;;;;;;;;25.19;46.31;94099.69;4917175;29;7241;-61
2022/11/08 02:54:54;;;;;;;;;;;;;;;25.17;45.81;94094.69;4926348;29;7240;-61
2022/11/08 02:57:22;;;;;;;;;;;;;;;25.17;46.32;94089.19;4931941;28;7081;-62
2022/11/08 03:00:08;;;;;;;;;;;;;;;25.18;45.84;94092.69;4931977;28;7161;-61
2022/11/08 03:02:34;;;;;;;;;;;;;;;25.19;45.81;94085.91;4912387;29;7027;-61
2022/11/08 03:05:30;;;;;;;;;;;;;;;25.18;46.05;94090.69;4915448;29;7247;-61
2022/11/08 03:08:16;;;;;;;;;;;;;;;25.16;45.80;94084.97;4903782;29;7065;-61
2022/11/08 03:11:02;;;;;;;;;;;;;;;25.19;45.51;94089.41;4892760;29;7357;-62
2022/11/08 03:13:27;;;;;;;;;;;;;;;25.18;45.50;94093.44;4907038;29;7967;-61
2022/11/08 03:16:11;;;;;;;;;;;;;;;25.18;46.04;94087.19;4896763;29;7250;-61
2022/11/08 03:18:37;;;;;;;;;;;;;;;25.19;45.81;94080.41;4878889;29;9421;-62
2022/11/08 03:21:07;;;;;;;;;;;;;;;25.16;45.91;94078.72;4900746;29;7205;-62
2022/11/08 03:23:37;;;;;;;;;;;;;;;25.17;45.57;94086.44;4882280;29;7416;-62
2022/11/08 03:26:14;;;;;;;;;;;;;;;25.16;46.06;94084.97;4885227;29;7053;-62
2022/11/08 03:28:40;;;;;;;;;;;;;;;25.16;45.65;94086.97;4877433;29;7303;-62
2022/11/08 03:31:06;;;;;;;;;;;;;;;25.16;45.92;94092.47;4878437;29;7331;-62
2022/11/08 03:33:42;;;;;;;;;;;;;;;25.14;46.35;94087.47;4888008;29;7467;-62
2022/11/08 03:36:11;;;;;;;;;;;;;;;25.13;45.86;94082.47;4880977;29;7287;-61
2022/11/08 03:38:49;;;;;;;;;;;;;;;25.15;46.23;94082.72;4906988;29;7297;-62
2022/11/08 03:41:18;;;;;;;;;;;;;;;25.15;46.11;94082.72;4898142;29;8771;-61
2022/11/08 03:43:50;;;;;;;;;;;;;;;25.17;45.91;94080.94;4902091;29;9036;-61
2022/11/08 03:46:22;;;;;;;;;;;;;;;25.17;46.06;94083.69;4940771;28;7137;-61
2022/11/08 03:48:51;;;;;;;;;;;;;;;25.16;46.38;94081.47;4933603;29;7050;-62
2022/11/08 03:51:18;;;;;;;;;;;;;;;25.12;45.87;94078.97;4925557;29;7335;-61
2022/11/08 03:53:55;;;;;;;;;;;;;;;25.12;45.46;94081.00;4934221;29;7035;-61
2022/11/08 03:56:26;;;;;;;;;;;;;;;25.10;45.71;94078.75;4935868;28;8713;-61
2022/11/08 03:59:07;;;;;;;;;;;;;;;25.09;46.05;94071.00;4935305;29;6879;-61
2022/11/08 04:01:38;;;;;;;;;;;;;;;25.11;45.99;94074.00;4928631;29;7333;-61
2022/11/08 04:04:10;;;;;;;;;;;;;;;25.09;46.37;94073.75;4934771;28;7079;-62
2022/11/08 04:06:36;;;;;;;;;;;;;;;25.01;46.73;94075.59;4922272;29;7402;-61
2022/11/08 04:09:14;;;;;;;;;;;;;;;24.99;46.45;94083.63;4934070;29;7026;-62
2022/11/08 04:17:13;;;;;;;;;;;;;;;24.89;47.03;94068.69;4921863;29;7288;-62
2022/11/08 04:22:24;;;;;;;;;;;;;;;24.84;46.71;94077.75;4919354;29;8780;-62
2022/11/08 04:24:49;;;;;;;;;;;;;;;24.80;46.92;94080.75;4936264;29;7307;-61
2022/11/08 04:27:18;;;;;;;;;;;;;;;24.80;47.15;94078.00;4927318;29;7003;-61
2022/11/08 04:29:44;;;;;;;;;;;;;;;24.80;46.47;94085.50;4926635;29;7492;-61
2022/11/08 04:32:13;;;;;;;;;;;;;;;24.76;47.32;94080.31;4916505;29;7312;-61
2022/11/08 04:34:42;;;;;;;;;;;;;;;24.77;46.81;94078.31;4921447;29;9391;-62
2022/11/08 04:37:15;;;;;;;;;;;;;;;24.75;46.82;94069.81;4921640;29;7033;-62
2022/11/08 04:39:44;;;;;;;;;;;;;;;24.76;46.43;94074.81;4950179;28;7258;-61
2022/11/08 04:42:10;;;;;;;;;;;;;;;24.75;46.46;94076.06;4910484;29;7070;-61
2022/11/08 04:44:39;;;;;;;;;;;;;;;24.71;46.74;94076.31;4919165;29;7445;-61
2022/11/08 04:47:07;;;;;;;;;;;;;;;24.72;47.09;94071.56;4944508;28;7051;-61
2022/11/08 04:49:32;;;;;;;;;;;;;;;24.73;46.45;94080.56;4917012;29;7020;-62
2022/11/08 04:52:03;;;;;;;;;;;;;;;24.71;46.71;94070.81;4913420;29;7236;-62
2022/11/08 04:54:33;;;;;;;;;;;;;;;24.70;47.16;94074.84;4921713;29;8252;-61
2022/11/08 04:57:05;;;;;;;;;;;;;;;24.70;46.36;94069.34;4932093;28;7030;-62
2022/11/08 04:59:42;;;;;;;;;;;;;;;24.69;47.01;94062.31;4924895;29;9341;-61
2022/11/08 05:02:22;;;;;;;;;;;;;;;24.70;46.68;94057.59;4933065;28;7314;-61
2022/11/08 05:05:00;;;;;;;;;;;;;;;24.68;47.38;94052.56;4917615;29;7262;-61
2022/11/08 05:07:31;;;;;;;;;;;;;;;24.68;46.85;94049.81;4928784;29;9758;-61
2022/11/08 05:10:34;;;;;;;;;;;;;;;24.68;47.21;94044.31;4942058;28;7263;-61
2022/11/08 05:13:27;;;;;;;;;;;;;;;24.68;46.51;94043.59;4897604;29;7099;-62
2022/11/08 05:16:16;;;;;;;;;;;;;;;24.67;47.48;94031.09;4880800;29;7208;-61
2022/11/08 05:18:45;;;;;;;;;;;;;;;24.67;47.01;94031.84;4900594;29;9211;-61
2022/11/08 05:24:01;;;;;;;;;;;;;;;24.64;46.87;94016.38;4896911;29;7295;-61
2022/11/08 05:26:40;;;;;;;;;;;;;;;24.64;46.97;94024.63;4906115;29;7060;-61
2022/11/08 05:29:08;;;;;;;;;;;;;;;24.65;47.13;94019.88;4889065;29;9414;-61
2022/11/08 05:31:51;;;;;;;;;;;;;;;24.64;46.29;94021.88;4894846;29;8027;-61
2022/11/08 05:34:38;;;;;;;;;;;;;;;24.65;47.24;94020.63;4875603;29;6981;-61
2022/11/08 05:37:05;;;;;;;;;;;;;;;24.65;47.12;94000.63;4895963;29;7042;-61
2022/11/08 05:39:31;;;;;;;;;;;;;;;24.64;47.27;94008.13;4884818;29;7285;-61
2022/11/08 05:42:16;;;;;;;;;;;;;;;24.62;46.51;93996.16;4880839;29;7233;-61
2022/11/08 05:44:59;;;;;;;;;;;;;;;24.63;46.87;93992.13;4889347;29;7260;-61
2022/11/08 05:47:28;;;;;;;;;;;;;;;24.65;47.82;93995.13;4910796;29;7294;-61
2022/11/08 05:49:54;;;;;;;;;;;;;;;24.73;47.32;94010.53;4931290;29;7510;-61
2022/11/08 05:52:29;;;;;;;;;;;;;;;24.82;48.44;94028.75;4931947;28;7195;-61
2022/11/08 05:55:09;;;;;;;;;;;;;;;24.85;48.17;94021.47;4915243;29;9341;-61
2022/11/08 05:57:52;;;;;;;;;;;;;;;24.90;47.01;94031.69;4918155;29;9316;-61
2022/11/08 06:00:25;;;;;;;;;;;;;;;24.87;46.91;94030.69;4915199;29;8478;-61
2022/11/08 06:02:51;;;;;;;;;;;;;;;24.91;47.29;94044.16;4933260;28;7056;-61
2022/11/08 06:05:19;;;;;;;;;;;;;;;24.91;46.32;94035.91;4918881;29;9011;-61
2022/11/08 06:07:50;;;;;;;;;;;;;;;24.93;46.42;94027.88;4927451;28;10268;-61
2022/11/08 06:10:25;;;;;;;;;;;;;;;24.97;46.24;94039.38;4919709;29;7207;-61
2022/11/08 06:12:59;;;;;;;;;;;;;;;24.98;45.66;94038.09;4950719;28;7354;-61
2022/11/08 06:16:03;;;;;;;;;;;;;;;25.03;45.94;94040.81;4930033;29;9713;-61
2022/11/08 06:18:31;;;;;;;;;;;;;;;25.03;46.06;94040.81;4898632;29;7244;-61
2022/11/08 06:21:01;;;;;;;;;;;;;;;25.03;46.11;94042.81;4887023;29;9381;-61
2022/11/08 06:23:27;;;;;;;;;;;;;;;25.05;46.00;94040.28;4898270;29;7294;-61
2022/11/08 06:26:04;;;;;;;;;;;;;;;25.02;45.62;94044.06;4879899;29;7269;-61
2022/11/08 06:28:50;;;;;;;;;;;;;;;25.01;45.20;94042.59;4880377;29;7276;-61
2022/11/08 06:31:17;;;;;;;;;;;;;;;25.00;46.45;94041.81;4886038;29;7269;-61
2022/11/08 06:33:55;;;;;;;;;;;;;;;25.02;46.43;94044.06;4892067;29;7136;-61
2022/11/08 06:36:21;;;;;;;;;;;;;;;25.02;46.24;94050.31;4889951;29;7160;-61
2022/11/08 06:39:04;;;;;;;;;;;;;;;25.01;45.92;94048.81;4893752;29;8282;-61
2022/11/08 06:41:36;;;;;;;;;;;;;;;25.00;46.03;94054.84;4879249;29;7635;-61
2022/11/08 06:44:09;;;;;;;;;;;;;;;25.04;45.97;94055.28;4889651;29;7209;-61
2022/11/08 06:46:35;;;;;;;;;;;;;;;25.06;45.80;94061.03;4888390;29;8800;-61
2022/11/08 06:49:00;;;;;;;;;;;;;;;25.06;45.35;94061.03;4898571;29;7447;-61
2022/11/08 06:51:38;;;;;;;;;;;;;;;25.04;45.29;94061.53;4893564;29;6892;-61
2022/11/08 06:54:14;;;;;;;;;;;;;;;25.02;45.21;94077.81;4899206;29;9435;-61
2022/11/08 06:56:42;;;;;;;;;;;;;;;25.01;45.84;94078.34;4915901;29;7301;-61
2022/11/08 06:59:14;;;;;;;;;;;;;;;25.03;45.42;94084.09;4927176;29;8702;-61
2022/11/08 07:01:55;;;;;;;;;;;;;;;25.05;45.60;94085.06;4923909;29;7444;-60
2022/11/08 07:04:50;;;;;;;;;;;;;;;25.07;45.32;94106.56;4916352;29;7090;-61
2022/11/08 07:07:25;;;;;;;;;;;;;;;25.06;45.14;94107.81;4869536;29;7001;-61
2022/11/08 07:10:07;;;;;;;;;;;;;;;25.06;45.41;94107.81;4863282;29;7239;-61
2022/11/08 07:12:42;;;;;;;;;;;;;;;25.05;45.98;94109.84;4856534;29;7037;-61
2022/11/08 07:15:17;;;;;;;;;;;;;;;25.04;45.91;94113.81;4849382;29;7560;-61
2022/11/08 07:17:43;;;;;;;;;;;;;;;25.05;45.69;94120.09;4859711;29;7193;-61
2022/11/08 07:20:12;;;;;;;;;;;;;;;25.04;45.88;94126.84;4853394;29;7590;-61
2022/11/08 07:22:40;;;;;;;;;;;;;;;25.05;45.48;94128.34;4852385;29;7421;-61
2022/11/08 07:25:15;;;;;;;;;;;;;;;25.03;45.61;94137.13;4856115;29;7036;-62
2022/11/08 07:27:41;;;;;;;;;;;;;;;25.06;45.48;94138.81;4856013;29;7021;-62
2022/11/08 07:30:11;;;;;;;;;;;;;;;25.06;45.03;94147.09;4852172;29;7540;-62
2022/11/08 07:32:40;;;;;;;;;;;;;;;25.09;45.08;94148.06;4851742;29;7217;-63
2022/11/08 07:35:15;;;;;;;;;;;;;;;25.08;45.26;94152.81;4855738;29;7377;-62
2022/11/08 07:37:50;;;;;;;;;;;;;;;25.09;45.85;94165.31;4858996;29;7477;-62
2022/11/08 07:40:19;;;;;;;;;;;;;;;25.08;46.35;94174.06;4851054;29;8400;-62
2022/11/08 07:42:45;;;;;;;;;;;;;;;25.07;45.46;94161.59;4858078;29;8681;-61
2022/11/08 07:45:11;;;;;;;;;;;;;;;25.06;46.07;94169.09;4912747;29;9094;-62
2022/11/08 07:47:37;;;;;;;;;;;;;;;25.06;45.31;94160.84;4931165;29;7120;-62
2022/11/08 07:50:05;;;;;;;;;;;;;;;25.04;45.61;94162.59;4908828;29;7544;-61
2022/11/08 07:52:33;;;;;;;;;;;;;;;25.07;46.20;94173.34;4920348;29;10113;-62
2022/11/08 07:54:59;;;;;;;;;;;;;;;25.05;45.97;94166.88;4917958;29;8759;-62
2022/11/08 07:57:29;;;;;;;;;;;;;;;25.07;46.08;94169.84;4928094;29;7541;-62
2022/11/08 07:59:57;;;;;;;;;;;;;;;25.08;46.14;94168.56;4933656;29;7044;-61
2022/11/08 08:02:24;;;;;;;;;;;;;;;25.08;45.84;94174.06;4916590;29;7512;-62
2022/11/08 08:04:58;;;;;;;;;;;;;;;25.08;45.77;94177.59;4936684;29;7547;-62
2022/11/08 08:07:28;;;;;;;;;;;;;;;25.09;46.39;94172.84;4914488;29;9268;-62
2022/11/08 08:09:55;;;;;;;;;;;;;;;25.08;45.89;94176.81;4912783;29;7013;-61
2022/11/08 08:12:22;;;;;;;;;;;;;;;25.09;46.24;94175.59;4919957;29;7288;-61
2022/11/08 08:14:49;;;;;;;;;;;;;;;25.08;46.32;94177.59;4931171;29;7368;-61
2022/11/08 08:17:19;;;;;;;;;;;;;;;25.07;46.42;94181.59;4910411;29;7274;-61
2022/11/08 08:19:45;;;;;;;;;;;;;;;25.07;45.78;94181.59;4931418;28;7180;-62
2022/11/08 08:22:13;;;;;;;;;;;;;;;25.09;46.51;94176.34;4924250;29;7049;-62
2022/11/08 08:24:39;;;;;;;;;;;;;;;25.09;46.23;94181.09;4935502;28;7142;-61
2022/11/08 08:27:10;;;;;;;;;;;;;;;25.06;46.56;94185.59;4912352;29;9070;-61
2022/11/08 08:29:38;;;;;;;;;;;;;;;25.09;46.19;94192.09;4917729;28;7039;-62
2022/11/08 08:32:04;;;;;;;;;;;;;;;25.08;46.31;94187.84;4914025;29;7185;-61
2022/11/08 08:34:34;;;;;;;;;;;;;;;25.09;46.56;94195.59;4910127;29;7040;-61
2022/11/08 08:37:14;;;;;;;;;;;;;;;25.10;46.25;94193.59;4916586;29;7280;-61
2022/11/08 08:39:41;;;;;;;;;;;;;;;25.08;46.05;94187.84;4923512;29;7300;-61
2022/11/08 08:42:07;;;;;;;;;;;;;;;25.09;46.37;94184.59;4912440;29;7421;-62
2022/11/08 08:44:38;;;;;;;;;;;;;;;25.10;46.29;94194.31;4909451;29;7632;-62
2022/11/08 08:47:06;;;;;;;;;;;;;;;25.11;45.71;94190.31;4903896;29;7035;-62
2022/11/08 08:49:36;;;;;;;;;;;;;;;25.10;46.29;94190.84;4925589;28;7173;-62
2022/11/08 08:52:02;;;;;;;;;;;;;;;25.09;46.44;94184.59;4913585;29;7218;-62
2022/11/08 08:54:28;;;;;;;;;;;;;;;25.10;46.10;94188.09;4919766;29;9054;-61
2022/11/08 08:57:22;;;;;;;;;;;;;;;25.09;45.96;94181.84;4921615;29;7280;-62
2022/11/08 08:59:47;;;;;;;;;;;;;;;25.11;46.29;94184.06;4852662;29;7183;-62
2022/11/08 09:02:16;;;;;;;;;;;;;;;25.11;46.38;94175.81;4885550;29;7493;-62
2022/11/08 09:04:49;;;;;;;;;;;;;;;25.13;45.84;94176.81;4873359;29;7363;-62
2022/11/08 09:07:45;;;;;;;;;;;;;;;25.14;46.07;94167.28;4883227;29;9338;-62
2022/11/08 09:10:45;;;;;;;;;;;;;;;25.13;46.67;94181.56;4802930;29;7121;-62
2022/11/08 09:13:22;;;;;;;;;;;;;;;25.13;46.20;94184.31;4788471;29;7556;-62
2022/11/08 09:15:48;;;;;;;;;;;;;;;25.12;46.33;94180.78;4793346;29;7122;-62
2022/11/08 09:18:33;;;;;;;;;;;;;;;25.13;45.74;94184.31;4795553;29;7102;-61
2022/11/08 09:20:59;;;;;;;;;;;;;;;25.14;46.31;94183.78;4799638;29;8672;-62
2022/11/08 09:23:25;;;;;;;;;;;;;;;25.16;45.67;94175.03;4803973;29;7199;-62
2022/11/08 09:26:06;;;;;;;;;;;;;;;25.15;46.11;94181.78;4790894;29;9727;-61
2022/11/08 09:28:34;;;;;;;;;;;;;;;25.15;46.60;94173.53;4785150;29;9419;-62
2022/11/08 09:31:08;;;;;;;;;;;;;;;25.14;46.07;94183.78;4802373;29;7326;-62
2022/11/08 09:33:42;;;;;;;;;;;;;;;25.12;46.04;94182.81;4804446;29;7105;-61
2022/11/08 09:36:13;;;;;;;;;;;;;;;25.13;46.03;94182.31;4799882;29;9053;-61
2022/11/08 09:38:56;;;;;;;;;;;;;;;25.14;46.89;94194.06;4842285;29;9210;-61
2022/11/08 09:41:53;;;;;;;;;;;;;;;25.14;45.78;94188.56;4839839;29;7372;-61
2022/11/08 09:47:59;;;;;;;;;;;;;;;25.16;46.34;94197.06;4913058;29;7041;-62
2022/11/08 09:50:50;;;;;;;;;;;;;;;25.17;45.97;94195.78;4917206;29;9381;-62
2022/11/08 09:53:54;;;;;;;;;;;;;;;25.18;45.84;94200.03;4921750;29;7061;-61
2022/11/08 09:56:30;;;;;;;;;;;;;;;25.15;46.76;94207.31;4912020;29;7030;-62
2022/11/08 09:59:30;;;;;;;;;;;;;;;25.17;46.54;94204.78;4924726;29;7604;-61
2022/11/08 10:02:26;;;;;;;;;;;;;;;25.21;45.81;94204.50;4917684;29;7234;-62
2022/11/08 10:05:01;;;;;;;;;;;;;;;25.18;46.38;94195.28;4899634;29;7222;-61
2022/11/08 10:07:54;;;;;;;;;;;;;;;25.18;46.61;94200.03;4880819;29;7272;-61
2022/11/08 10:10:37;;;;;;;;;;;;;;;25.19;46.15;94204.25;4887939;29;7038;-61
2022/11/08 10:13:19;;;;;;;;;;;;;;;25.19;46.65;94199.50;4898072;29;7680;-61
2022/11/08 10:16:15;;;;;;;;;;;;;;;25.22;46.57;94195.75;4897500;29;7114;-62
2022/11/08 10:19:34;;;;;;;;;;;;;;;25.22;46.74;94200.50;4838802;29;7320;-62
2022/11/08 10:22:46;;;;;;;;;;;;;;;25.22;46.59;94201.25;4836753;29;7953;-61
2022/11/08 10:25:35;;;;;;;;;;;;;;;25.21;46.53;94205.25;4854716;29;7165;-61
2022/11/08 10:28:04;;;;;;;;;;;;;;;25.23;46.15;94201.97;4848550;29;7282;-62
2022/11/08 10:30:45;;;;;;;;;;;;;;;25.24;46.33;94203.47;4855435;29;7260;-61
2022/11/08 10:33:39;;;;;;;;;;;;;;;25.26;46.22;94207.22;4850588;29;7303;-61
2022/11/08 10:36:25;;;;;;;;;;;;;;;25.26;46.37;94204.47;4860198;29;9268;-61
2022/11/08 10:39:10;;;;;;;;;;;;;;;25.27;46.72;94194.94;4839202;29;7287;-62
2022/11/08 10:42:11;;;;;;;;;;;;;;;25.29;46.20;94197.91;4851490;29;9384;-62
2022/11/08 10:44:46;;;;;;;;;;;;;;;25.31;46.39;94187.16;4821447;29;7198;-62
2022/11/08 10:47:50;;;;;;;;;;;;;;;25.31;45.85;94187.16;4828341;29;9512;-62
2022/11/08 10:50:52;;;;;;;;;;;;;;;25.32;46.28;94182.38;4794294;29;7281;-62
2022/11/08 10:53:43;;;;;;;;;;;;;;;25.33;46.52;94183.88;4776273;29;7048;-62
2022/11/08 10:56:14;;;;;;;;;;;;;;;25.31;46.48;94181.66;4849947;29;8969;-62
2022/11/08 10:58:42;;;;;;;;;;;;;;;25.32;46.30;94179.63;4857946;29;7566;-62
2022/11/08 11:01:24;;;;;;;;;;;;;;;25.32;46.59;94171.38;4855331;29;7040;-62
2022/11/08 11:04:23;;;;;;;;;;;;;;;25.32;46.01;94177.63;4853687;29;7024;-62
2022/11/08 11:06:51;;;;;;;;;;;;;;;25.33;46.02;94168.13;4850429;29;7329;-62
2022/11/08 11:09:30;;;;;;;;;;;;;;;25.32;46.23;94160.38;4849690;29;7163;-62
2022/11/08 11:12:00;;;;;;;;;;;;;;;25.35;45.72;94164.84;4851081;29;7043;-62
2022/11/08 11:14:36;;;;;;;;;;;;;;;25.36;45.88;94161.56;4843060;29;10693;-63
2022/11/08 11:17:27;;;;;;;;;;;;;;;25.39;46.33;94154.28;4842186;29;7030;-63
2022/11/08 11:20:26;;;;;;;;;;;;;;;25.41;45.80;94157.28;4842226;29;7299;-62
2022/11/08 11:22:52;;;;;;;;;;;;;;;25.42;44.85;94158.81;4832884;29;8762;-63
2022/11/08 11:25:23;;;;;;;;;;;;;;;25.41;45.39;94147.03;4889124;29;7150;-62
2022/11/08 11:27:55;;;;;;;;;;;;;;;25.40;45.04;94153.78;4894857;29;9682;-63
2022/11/08 11:30:35;;;;;;;;;;;;;;;25.38;45.21;94159.06;4897110;29;7040;-63
2022/11/08 11:33:05;;;;;;;;;;;;;;;25.37;45.08;94145.81;4896198;29;8979;-63
2022/11/08 11:35:52;;;;;;;;;;;;;;;25.41;45.71;94151.78;4905322;29;8811;-62
2022/11/08 11:38:52;;;;;;;;;;;;;;;25.42;45.79;94143.00;4908249;29;8563;-62
2022/11/08 11:41:40;;;;;;;;;;;;;;;25.41;45.10;94141.50;4850079;29;7273;-62
2022/11/08 11:44:21;;;;;;;;;;;;;;;25.42;45.21;94131.28;4860652;29;7458;-62
2022/11/08 11:47:08;;;;;;;;;;;;;;;25.46;45.21;94130.97;4843773;29;9162;-62
2022/11/08 11:49:53;;;;;;;;;;;;;;;25.46;45.71;94120.72;4849522;29;9361;-62
2022/11/08 11:52:31;;;;;;;;;;;;;;;25.46;45.60;94120.72;4856158;29;7067;-63
2022/11/08 11:55:13;;;;;;;;;;;;;;;25.45;45.85;94119.22;4853160;29;9313;-63
2022/11/08 11:58:03;;;;;;;;;;;;;;;25.46;45.63;94119.97;4860526;29;7198;-62
2022/11/08 12:00:28;;;;;;;;;;;;;;;25.44;45.52;94112.22;4867832;29;9145;-62
2022/11/08 12:03:33;;;;;;;;;;;;;;;25.46;45.84;94106.19;4861004;29;8984;-63
2022/11/08 12:06:07;;;;;;;;;;;;;;;25.47;45.21;94094.66;4857289;29;7461;-62
2022/11/08 12:09:03;;;;;;;;;;;;;;;25.46;44.55;94090.44;4853724;29;7052;-62
2022/11/08 12:12:06;;;;;;;;;;;;;;;25.50;44.87;94090.88;4863280;29;7303;-62
2022/11/08 12:14:41;;;;;;;;;;;;;;;25.53;44.51;94087.13;4857056;29;10639;-62
2022/11/08 12:17:19;;;;;;;;;;;;;;;25.56;44.23;94086.06;4864240;29;9021;-62
2022/11/08 12:20:06;;;;;;;;;;;;;;;25.56;44.90;94083.31;4925596;28;7335;-62
2022/11/08 12:22:53;;;;;;;;;;;;;;;25.56;44.55;94083.31;4913745;29;7294;-62
2022/11/08 12:25:32;;;;;;;;;;;;;;;25.58;45.43;94094.53;4915563;29;7756;-62
2022/11/08 12:28:08;;;;;;;;;;;;;;;25.61;45.40;94079.75;4912564;29;8595;-62
2022/11/08 12:30:46;;;;;;;;;;;;;;;25.61;45.28;94076.25;4911088;29;7107;-62
2022/11/08 12:33:11;;;;;;;;;;;;;;;25.60;45.12;94075.50;4928037;28;7157;-62
2022/11/08 12:36:02;;;;;;;;;;;;;;;25.62;45.50;94067.44;4923277;28;7314;-62
2022/11/08 12:38:36;;;;;;;;;;;;;;;25.62;45.02;94069.47;4926875;28;7298;-62
2022/11/08 12:41:31;;;;;;;;;;;;;;;25.62;45.18;94061.94;4915402;29;8402;-62
2022/11/08 12:44:35;;;;;;;;;;;;;;;25.65;44.88;94066.44;4912991;29;7082;-62
2022/11/08 12:47:26;;;;;;;;;;;;;;;25.66;45.57;94067.19;4912769;29;8574;-62
2022/11/08 12:50:37;;;;;;;;;;;;;;;25.67;45.70;94074.16;4926471;28;7314;-62
2022/11/08 12:53:34;;;;;;;;;;;;;;;25.70;45.21;94068.38;4919374;28;9308;-62
2022/11/08 12:56:04;;;;;;;;;;;;;;;25.72;45.24;94065.09;4926612;28;7323;-62
2022/11/08 12:58:52;;;;;;;;;;;;;;;25.72;45.37;94054.84;4917537;29;7093;-63
2022/11/08 13:01:33;;;;;;;;;;;;;;;25.76;45.85;94062.78;4927641;29;9392;-62
2022/11/08 13:04:18;;;;;;;;;;;;;;;25.80;45.82;94050.22;4916556;29;7037;-62
2022/11/08 13:07:31;;;;;;;;;;;;;;;25.83;45.20;94038.16;4913126;29;9300;-62
2022/11/08 13:10:04;;;;;;;;;;;;;;;25.87;45.13;94046.88;4902609;29;9342;-62
2022/11/08 13:13:08;;;;;;;;;;;;;;;25.92;45.31;94039.81;4892998;29;7077;-61
2022/11/08 13:16:26;;;;;;;;;;;;;;;25.96;45.80;94049.25;4889885;29;7136;-62
2022/11/08 13:19:04;;;;;;;;;;;;;;;25.99;45.76;94045.44;4823080;29;8569;-61
2022/11/08 13:21:40;;;;;;;;;;;;;;;26.02;45.36;94036.16;4811344;29;7520;-62
2022/11/08 13:24:06;;;;;;;;;;;;;;;26.05;44.98;94029.59;4820035;29;9630;-62
2022/11/08 13:26:33;;;;;;;;;;;;;;;26.09;45.42;94032.81;4813512;29;7114;-62
2022/11/08 13:29:11;;;;;;;;;;;;;;;26.13;44.84;94036.03;4811765;29;9097;-62
2022/11/08 13:31:47;;;;;;;;;;;;;;;26.13;45.46;94033.28;4803704;29;7046;-62
2022/11/08 13:34:52;;;;;;;;;;;;;;;26.12;45.62;94036.56;4807926;29;8805;-62
2022/11/08 13:37:24;;;;;;;;;;;;;;;26.18;45.49;94031.69;4816792;29;7378;-62
2022/11/08 13:40:20;;;;;;;;;;;;;;;26.21;44.80;94038.19;4799334;29;7222;-62
2022/11/08 13:42:49;;;;;;;;;;;;;;;26.19;45.43;94035.22;4805318;29;7615;-62
2022/11/08 13:45:27;;;;;;;;;;;;;;;26.16;45.73;94039.75;4801313;29;7165;-62
2022/11/08 13:47:56;;;;;;;;;;;;;;;26.23;44.96;94035.66;4801840;29;9043;-62
2022/11/08 13:50:28;;;;;;;;;;;;;;;26.26;45.25;94043.59;4787417;29;8534;-62
2022/11/08 13:53:22;;;;;;;;;;;;;;;26.27;45.31;94034.09;4857731;29;7125;-61
2022/11/08 13:56:16;;;;;;;;;;;;;;;26.29;45.22;94033.56;4912150;29;8965;-62
2022/11/08 13:59:27;;;;;;;;;;;;;;;26.32;45.22;94029.75;4929713;29;7090;-61
2022/11/08 14:01:54;;;;;;;;;;;;;;;26.32;45.48;94021.47;4871125;29;9555;-62
2022/11/08 14:04:39;;;;;;;;;;;;;;;26.33;45.48;94017.44;4869125;29;7103;-62
2022/11/08 14:07:10;;;;;;;;;;;;;;;26.32;45.26;94024.25;4866860;29;7430;-62
2022/11/08 14:09:55;;;;;;;;;;;;;;;26.31;45.55;94026.25;4855958;29;9691;-62
2022/11/08 14:12:45;;;;;;;;;;;;;;;26.29;44.98;94017.75;4872207;29;7125;-62